sensor_id;sensor_type;location;lat;lon;timestamp;temperature;humidity
52787;DHT22;38661;53.152;5.846;2023-02-15T00:01:44;1.60;93.20
52787;DHT22;38661;53.152;5.846;2023-02-15T00:04:13;1.60;93.10
52787;DHT22;38661;53.152;5.846;2023-02-15T00:06:40;1.60;93.20
52787;DHT22;38661;53.152;5.846;2023-02-15T00:09:06;1.60;93.30
52787;DHT22;38661;53.152;5.846;2023-02-15T00:11:31;1.60;93.60
52787;DHT22;38661;53.152;5.846;2023-02-15T00:14:26;1.60;93.60
52787;DHT22;38661;53.152;5.846;2023-02-15T00:16:52;1.60;93.40
52787;DHT22;38661;53.152;5.846;2023-02-15T00:19:20;1.60;93.40
52787;DHT22;38661;53.152;5.846;2023-02-15T00:21:46;1.60;93.00
52787;DHT22;38661;53.152;5.846;2023-02-15T00:24:14;1.60;92.90
52787;DHT22;38661;53.152;5.846;2023-02-15T00:26:41;1.60;93.20
52787;DHT22;38661;53.152;5.846;2023-02-15T00:29:08;1.50;93.20
52787;DHT22;38661;53.152;5.846;2023-02-15T00:31:35;1.50;93.10
52787;DHT22;38661;53.152;5.846;2023-02-15T00:34:06;1.50;93.40
52787;DHT22;38661;53.152;5.846;2023-02-15T00:36:32;1.50;93.40
52787;DHT22;38661;53.152;5.846;2023-02-15T00:38:58;1.50;93.40
52787;DHT22;38661;53.152;5.846;2023-02-15T00:41:24;1.40;93.20
52787;DHT22;38661;53.152;5.846;2023-02-15T00:43:50;1.40;93.10
52787;DHT22;38661;53.152;5.846;2023-02-15T00:46:16;1.30;93.10
52787;DHT22;38661;53.152;5.846;2023-02-15T00:48:41;1.20;93.00
52787;DHT22;38661;53.152;5.846;2023-02-15T00:51:07;1.10;93.00
52787;DHT22;38661;53.152;5.846;2023-02-15T00:53:33;1.10;92.90
52787;DHT22;38661;53.152;5.846;2023-02-15T00:55:58;1.10;93.00
52787;DHT22;38661;53.152;5.846;2023-02-15T00:58:24;1.00;92.80
52787;DHT22;38661;53.152;5.846;2023-02-15T01:00:50;0.90;92.80
52787;DHT22;38661;53.152;5.846;2023-02-15T01:03:18;0.90;92.80
52787;DHT22;38661;53.152;5.846;2023-02-15T01:05:44;0.80;92.90
52787;DHT22;38661;53.152;5.846;2023-02-15T01:08:10;0.90;93.00
52787;DHT22;38661;53.152;5.846;2023-02-15T01:10:36;0.80;92.80
52787;DHT22;38661;53.152;5.846;2023-02-15T01:13:02;0.70;92.80
52787;DHT22;38661;53.152;5.846;2023-02-15T01:15:28;0.70;92.90
52787;DHT22;38661;53.152;5.846;2023-02-15T01:17:54;0.70;92.80
52787;DHT22;38661;53.152;5.846;2023-02-15T01:20:22;0.60;92.90
52787;DHT22;38661;53.152;5.846;2023-02-15T01:22:48;0.60;92.90
52787;DHT22;38661;53.152;5.846;2023-02-15T01:25:16;0.60;92.90
52787;DHT22;38661;53.152;5.846;2023-02-15T01:27:42;0.60;92.80
52787;DHT22;38661;53.152;5.846;2023-02-15T01:30:09;0.60;93.00
52787;DHT22;38661;53.152;5.846;2023-02-15T01:32:35;0.60;93.00
52787;DHT22;38661;53.152;5.846;2023-02-15T01:35:01;0.60;93.20
52787;DHT22;38661;53.152;5.846;2023-02-15T01:37:26;0.60;93.20
52787;DHT22;38661;53.152;5.846;2023-02-15T01:39:52;0.60;93.20
52787;DHT22;38661;53.152;5.846;2023-02-15T01:42:26;0.60;93.20
52787;DHT22;38661;53.152;5.846;2023-02-15T01:45:00;0.60;93.30
52787;DHT22;38661;53.152;5.846;2023-02-15T01:47:36;0.60;93.50
52787;DHT22;38661;53.152;5.846;2023-02-15T01:50:11;0.60;93.60
52787;DHT22;38661;53.152;5.846;2023-02-15T01:52:42;0.60;93.70
52787;DHT22;38661;53.152;5.846;2023-02-15T01:55:12;0.60;93.80
52787;DHT22;38661;53.152;5.846;2023-02-15T01:57:39;0.60;93.80
52787;DHT22;38661;53.152;5.846;2023-02-15T02:00:06;0.60;93.70
52787;DHT22;38661;53.152;5.846;2023-02-15T02:02:33;0.60;93.70
52787;DHT22;38661;53.152;5.846;2023-02-15T02:05:01;0.60;93.70
52787;DHT22;38661;53.152;5.846;2023-02-15T02:07:39;0.60;93.70
52787;DHT22;38661;53.152;5.846;2023-02-15T02:10:06;0.60;93.60
52787;DHT22;38661;53.152;5.846;2023-02-15T02:12:33;0.50;93.50
52787;DHT22;38661;53.152;5.846;2023-02-15T02:15:00;0.50;93.60
52787;DHT22;38661;53.152;5.846;2023-02-15T02:23:43;0.50;93.60
52787;DHT22;38661;53.152;5.846;2023-02-15T02:29:14;0.40;93.50
52787;DHT22;38661;53.152;5.846;2023-02-15T02:34:51;0.40;93.50
52787;DHT22;38661;53.152;5.846;2023-02-15T02:37:44;0.30;93.40
52787;DHT22;38661;53.152;5.846;2023-02-15T02:44:22;0.30;93.50
52787;DHT22;38661;53.152;5.846;2023-02-15T02:49:04;0.30;93.50
52787;DHT22;38661;53.152;5.846;2023-02-15T02:51:29;0.30;93.50
52787;DHT22;38661;53.152;5.846;2023-02-15T02:53:57;0.30;93.50
52787;DHT22;38661;53.152;5.846;2023-02-15T02:59:12;0.30;93.40
52787;DHT22;38661;53.152;5.846;2023-02-15T03:02:07;0.30;93.40
52787;DHT22;38661;53.152;5.846;2023-02-15T03:04:35;0.30;93.50
52787;DHT22;38661;53.152;5.846;2023-02-15T03:07:11;0.40;93.60
52787;DHT22;38661;53.152;5.846;2023-02-15T03:09:41;0.40;93.60
52787;DHT22;38661;53.152;5.846;2023-02-15T03:12:13;0.50;93.80
52787;DHT22;38661;53.152;5.846;2023-02-15T03:14:40;0.60;93.80
52787;DHT22;38661;53.152;5.846;2023-02-15T03:17:07;0.60;93.80
52787;DHT22;38661;53.152;5.846;2023-02-15T03:19:36;0.60;93.70
52787;DHT22;38661;53.152;5.846;2023-02-15T03:22:17;0.60;93.80
52787;DHT22;38661;53.152;5.846;2023-02-15T03:27:36;0.60;94.10
52787;DHT22;38661;53.152;5.846;2023-02-15T03:30:04;0.60;94.30
52787;DHT22;38661;53.152;5.846;2023-02-15T03:32:32;0.60;94.30
52787;DHT22;38661;53.152;5.846;2023-02-15T03:35:00;0.60;94.30
52787;DHT22;38661;53.152;5.846;2023-02-15T03:37:47;0.60;94.00
52787;DHT22;38661;53.152;5.846;2023-02-15T03:40:18;0.50;93.90
52787;DHT22;38661;53.152;5.846;2023-02-15T03:43:17;0.50;94.00
52787;DHT22;38661;53.152;5.846;2023-02-15T03:45:48;0.40;94.00
52787;DHT22;38661;53.152;5.846;2023-02-15T03:48:29;0.50;94.10
52787;DHT22;38661;53.152;5.846;2023-02-15T03:50:59;0.40;94.10
52787;DHT22;38661;53.152;5.846;2023-02-15T03:53:46;0.40;94.10
52787;DHT22;38661;53.152;5.846;2023-02-15T03:56:13;0.50;94.20
52787;DHT22;38661;53.152;5.846;2023-02-15T03:58:39;0.50;94.10
52787;DHT22;38661;53.152;5.846;2023-02-15T04:01:34;0.50;94.00
52787;DHT22;38661;53.152;5.846;2023-02-15T04:04:21;0.40;94.10
52787;DHT22;38661;53.152;5.846;2023-02-15T04:06:48;0.40;94.00
52787;DHT22;38661;53.152;5.846;2023-02-15T04:09:14;0.40;94.20
52787;DHT22;38661;53.152;5.846;2023-02-15T04:11:58;0.40;94.10
52787;DHT22;38661;53.152;5.846;2023-02-15T04:14:24;0.40;94.10
52787;DHT22;38661;53.152;5.846;2023-02-15T04:17:09;0.40;94.10
52787;DHT22;38661;53.152;5.846;2023-02-15T04:19:35;0.40;94.10
52787;DHT22;38661;53.152;5.846;2023-02-15T04:22:19;0.40;94.10
52787;DHT22;38661;53.152;5.846;2023-02-15T04:25:04;0.40;94.30
52787;DHT22;38661;53.152;5.846;2023-02-15T04:27:50;0.40;94.30
52787;DHT22;38661;53.152;5.846;2023-02-15T04:30:18;0.40;94.30
52787;DHT22;38661;53.152;5.846;2023-02-15T04:32:45;0.40;94.40
52787;DHT22;38661;53.152;5.846;2023-02-15T04:35:11;0.40;94.40
52787;DHT22;38661;53.152;5.846;2023-02-15T04:37:37;0.30;94.30
52787;DHT22;38661;53.152;5.846;2023-02-15T04:40:05;0.30;94.50
52787;DHT22;38661;53.152;5.846;2023-02-15T04:42:30;0.40;94.60
52787;DHT22;38661;53.152;5.846;2023-02-15T04:44:56;0.50;94.50
52787;DHT22;38661;53.152;5.846;2023-02-15T04:47:22;0.50;94.40
52787;DHT22;38661;53.152;5.846;2023-02-15T04:49:48;0.50;94.50
52787;DHT22;38661;53.152;5.846;2023-02-15T04:52:15;0.50;94.50
52787;DHT22;38661;53.152;5.846;2023-02-15T04:54:42;0.50;94.50
52787;DHT22;38661;53.152;5.846;2023-02-15T04:57:08;0.50;94.50
52787;DHT22;38661;53.152;5.846;2023-02-15T04:59:34;0.50;94.50
52787;DHT22;38661;53.152;5.846;2023-02-15T05:02:00;0.60;94.40
52787;DHT22;38661;53.152;5.846;2023-02-15T05:04:25;0.60;94.40
52787;DHT22;38661;53.152;5.846;2023-02-15T05:06:52;0.60;94.40
52787;DHT22;38661;53.152;5.846;2023-02-15T05:09:18;0.50;94.40
52787;DHT22;38661;53.152;5.846;2023-02-15T05:11:43;0.50;94.30
52787;DHT22;38661;53.152;5.846;2023-02-15T05:14:11;0.60;94.30
52787;DHT22;38661;53.152;5.846;2023-02-15T05:16:36;0.60;94.10
52787;DHT22;38661;53.152;5.846;2023-02-15T05:19:02;0.60;94.10
52787;DHT22;38661;53.152;5.846;2023-02-15T05:21:28;0.60;94.00
52787;DHT22;38661;53.152;5.846;2023-02-15T05:23:54;0.60;94.00
52787;DHT22;38661;53.152;5.846;2023-02-15T05:26:22;0.60;93.90
52787;DHT22;38661;53.152;5.846;2023-02-15T05:29:07;0.60;93.90
52787;DHT22;38661;53.152;5.846;2023-02-15T05:31:33;0.60;93.90
52787;DHT22;38661;53.152;5.846;2023-02-15T05:33:59;0.60;94.00
52787;DHT22;38661;53.152;5.846;2023-02-15T05:36:25;0.60;94.10
52787;DHT22;38661;53.152;5.846;2023-02-15T05:38:51;0.60;94.00
52787;DHT22;38661;53.152;5.846;2023-02-15T05:41:17;0.60;94.10
52787;DHT22;38661;53.152;5.846;2023-02-15T05:43:43;0.50;94.10
52787;DHT22;38661;53.152;5.846;2023-02-15T05:46:09;0.50;94.30
52787;DHT22;38661;53.152;5.846;2023-02-15T05:48:35;0.50;94.40
52787;DHT22;38661;53.152;5.846;2023-02-15T05:51:06;0.50;94.50
52787;DHT22;38661;53.152;5.846;2023-02-15T05:53:34;0.50;94.40
52787;DHT22;38661;53.152;5.846;2023-02-15T05:56:01;0.50;94.70
52787;DHT22;38661;53.152;5.846;2023-02-15T05:58:33;0.50;94.80
52787;DHT22;38661;53.152;5.846;2023-02-15T06:00:59;0.50;94.70
52787;DHT22;38661;53.152;5.846;2023-02-15T06:03:25;0.40;94.90
52787;DHT22;38661;53.152;5.846;2023-02-15T06:05:52;0.50;95.10
52787;DHT22;38661;53.152;5.846;2023-02-15T06:08:18;0.50;95.20
52787;DHT22;38661;53.152;5.846;2023-02-15T06:10:45;0.50;95.20
52787;DHT22;38661;53.152;5.846;2023-02-15T06:13:11;0.60;95.20
52787;DHT22;38661;53.152;5.846;2023-02-15T06:15:37;0.60;95.00
52787;DHT22;38661;53.152;5.846;2023-02-15T06:18:03;0.60;95.30
52787;DHT22;38661;53.152;5.846;2023-02-15T06:20:29;0.60;95.30
52787;DHT22;38661;53.152;5.846;2023-02-15T06:22:54;0.60;95.30
52787;DHT22;38661;53.152;5.846;2023-02-15T06:25:20;0.60;95.20
52787;DHT22;38661;53.152;5.846;2023-02-15T06:27:46;0.60;95.30
52787;DHT22;38661;53.152;5.846;2023-02-15T06:30:12;0.60;95.30
52787;DHT22;38661;53.152;5.846;2023-02-15T06:32:38;0.60;95.30
52787;DHT22;38661;53.152;5.846;2023-02-15T06:35:04;0.60;95.30
52787;DHT22;38661;53.152;5.846;2023-02-15T06:37:30;0.60;95.30
52787;DHT22;38661;53.152;5.846;2023-02-15T06:39:55;0.60;95.30
52787;DHT22;38661;53.152;5.846;2023-02-15T06:42:22;0.60;95.30
52787;DHT22;38661;53.152;5.846;2023-02-15T06:44:47;0.60;95.20
52787;DHT22;38661;53.152;5.846;2023-02-15T06:47:13;0.60;95.20
52787;DHT22;38661;53.152;5.846;2023-02-15T06:49:39;0.60;95.20
52787;DHT22;38661;53.152;5.846;2023-02-15T06:52:05;0.60;95.20
52787;DHT22;38661;53.152;5.846;2023-02-15T06:54:30;0.60;95.30
52787;DHT22;38661;53.152;5.846;2023-02-15T06:56:56;0.60;95.10
52787;DHT22;38661;53.152;5.846;2023-02-15T06:59:22;0.60;95.00
52787;DHT22;38661;53.152;5.846;2023-02-15T07:01:47;0.60;95.10
52787;DHT22;38661;53.152;5.846;2023-02-15T07:04:14;0.60;95.20
52787;DHT22;38661;53.152;5.846;2023-02-15T07:06:40;0.60;95.30
52787;DHT22;38661;53.152;5.846;2023-02-15T07:09:06;0.60;95.30
52787;DHT22;38661;53.152;5.846;2023-02-15T07:11:32;0.60;95.30
52787;DHT22;38661;53.152;5.846;2023-02-15T07:14:16;0.70;95.30
52787;DHT22;38661;53.152;5.846;2023-02-15T07:16:42;0.70;95.30
52787;DHT22;38661;53.152;5.846;2023-02-15T07:19:08;0.70;95.30
52787;DHT22;38661;53.152;5.846;2023-02-15T07:21:34;0.70;95.30
52787;DHT22;38661;53.152;5.846;2023-02-15T07:24:00;0.70;95.40
52787;DHT22;38661;53.152;5.846;2023-02-15T07:26:26;0.60;95.40
52787;DHT22;38661;53.152;5.846;2023-02-15T07:28:52;0.60;95.40
52787;DHT22;38661;53.152;5.846;2023-02-15T07:31:18;0.70;95.50
52787;DHT22;38661;53.152;5.846;2023-02-15T07:33:44;0.70;95.50
52787;DHT22;38661;53.152;5.846;2023-02-15T07:36:10;0.70;95.50
52787;DHT22;38661;53.152;5.846;2023-02-15T07:38:39;0.80;95.60
52787;DHT22;38661;53.152;5.846;2023-02-15T07:41:13;0.80;95.50
52787;DHT22;38661;53.152;5.846;2023-02-15T07:43:41;0.80;95.50
52787;DHT22;38661;53.152;5.846;2023-02-15T07:46:12;0.80;95.60
52787;DHT22;38661;53.152;5.846;2023-02-15T07:48:39;0.80;95.70
52787;DHT22;38661;53.152;5.846;2023-02-15T07:51:07;0.80;95.80
52787;DHT22;38661;53.152;5.846;2023-02-15T07:53:34;0.90;95.60
52787;DHT22;38661;53.152;5.846;2023-02-15T07:56:02;1.00;95.70
52787;DHT22;38661;53.152;5.846;2023-02-15T07:58:28;1.00;95.80
52787;DHT22;38661;53.152;5.846;2023-02-15T08:01:13;1.10;95.80
52787;DHT22;38661;53.152;5.846;2023-02-15T08:03:38;1.10;95.90
52787;DHT22;38661;53.152;5.846;2023-02-15T08:06:04;1.20;96.00
52787;DHT22;38661;53.152;5.846;2023-02-15T08:08:30;1.20;95.80
52787;DHT22;38661;53.152;5.846;2023-02-15T08:11:05;1.30;95.90
52787;DHT22;38661;53.152;5.846;2023-02-15T08:13:51;1.40;95.70
52787;DHT22;38661;53.152;5.846;2023-02-15T08:16:27;1.40;95.70
52787;DHT22;38661;53.152;5.846;2023-02-15T08:18:55;1.60;95.60
52787;DHT22;38661;53.152;5.846;2023-02-15T08:21:21;1.60;95.40
52787;DHT22;38661;53.152;5.846;2023-02-15T08:23:47;1.70;95.40
52787;DHT22;38661;53.152;5.846;2023-02-15T08:26:13;1.70;95.40
52787;DHT22;38661;53.152;5.846;2023-02-15T08:28:40;1.80;95.20
52787;DHT22;38661;53.152;5.846;2023-02-15T08:31:08;1.90;95.40
52787;DHT22;38661;53.152;5.846;2023-02-15T08:33:35;1.90;95.30
52787;DHT22;38661;53.152;5.846;2023-02-15T08:36:06;2.00;95.30
52787;DHT22;38661;53.152;5.846;2023-02-15T08:38:33;2.10;95.00
52787;DHT22;38661;53.152;5.846;2023-02-15T08:41:16;2.10;95.00
52787;DHT22;38661;53.152;5.846;2023-02-15T08:43:43;2.10;95.00
52787;DHT22;38661;53.152;5.846;2023-02-15T08:46:10;2.20;95.00
52787;DHT22;38661;53.152;5.846;2023-02-15T08:48:36;2.20;95.00
52787;DHT22;38661;53.152;5.846;2023-02-15T08:53:40;2.40;95.50
52787;DHT22;38661;53.152;5.846;2023-02-15T08:56:07;2.40;95.10
52787;DHT22;38661;53.152;5.846;2023-02-15T08:58:33;2.60;95.60
52787;DHT22;38661;53.152;5.846;2023-02-15T09:00:59;2.60;95.40
52787;DHT22;38661;53.152;5.846;2023-02-15T09:03:28;2.70;95.10
52787;DHT22;38661;53.152;5.846;2023-02-15T09:06:01;2.80;95.40
52787;DHT22;38661;53.152;5.846;2023-02-15T09:08:27;2.90;95.80
52787;DHT22;38661;53.152;5.846;2023-02-15T09:10:53;3.00;95.50
52787;DHT22;38661;53.152;5.846;2023-02-15T09:13:20;3.10;95.20
52787;DHT22;38661;53.152;5.846;2023-02-15T09:15:46;3.20;95.40
52787;DHT22;38661;53.152;5.846;2023-02-15T09:18:12;3.30;95.30
52787;DHT22;38661;53.152;5.846;2023-02-15T09:20:43;3.50;95.00
52787;DHT22;38661;53.152;5.846;2023-02-15T09:23:09;3.60;95.20
52787;DHT22;38661;53.152;5.846;2023-02-15T09:25:35;3.70;95.50
52787;DHT22;38661;53.152;5.846;2023-02-15T09:28:01;3.80;95.50
52787;DHT22;38661;53.152;5.846;2023-02-15T09:30:26;4.00;95.70
52787;DHT22;38661;53.152;5.846;2023-02-15T09:32:52;4.10;95.40
52787;DHT22;38661;53.152;5.846;2023-02-15T09:35:18;4.20;95.00
52787;DHT22;38661;53.152;5.846;2023-02-15T09:37:43;4.30;95.20
52787;DHT22;38661;53.152;5.846;2023-02-15T09:40:12;4.40;95.20
52787;DHT22;38661;53.152;5.846;2023-02-15T09:48:42;4.70;94.70
52787;DHT22;38661;53.152;5.846;2023-02-15T09:51:41;4.90;94.80
52787;DHT22;38661;53.152;5.846;2023-02-15T09:56:52;5.10;94.40
52787;DHT22;38661;53.152;5.846;2023-02-15T09:59:56;5.20;94.40
52787;DHT22;38661;53.152;5.846;2023-02-15T10:13:48;5.70;93.40
52787;DHT22;38661;53.152;5.846;2023-02-15T10:16:30;5.80;93.40
52787;DHT22;38661;53.152;5.846;2023-02-15T10:22:42;6.20;93.10
52787;DHT22;38661;53.152;5.846;2023-02-15T10:27:55;6.50;92.60
52787;DHT22;38661;53.152;5.846;2023-02-15T10:30:51;6.60;92.40
52787;DHT22;38661;53.152;5.846;2023-02-15T10:42:17;6.90;91.90
52787;DHT22;38661;53.152;5.846;2023-02-15T10:47:17;7.10;91.90
52787;DHT22;38661;53.152;5.846;2023-02-15T10:52:58;7.30;91.70
52787;DHT22;38661;53.152;5.846;2023-02-15T10:55:45;7.50;91.40
52787;DHT22;38661;53.152;5.846;2023-02-15T11:00:58;7.70;91.00
52787;DHT22;38661;53.152;5.846;2023-02-15T11:06:17;7.70;90.40
52787;DHT22;38661;53.152;5.846;2023-02-15T11:09:03;7.80;90.50
52787;DHT22;38661;53.152;5.846;2023-02-15T11:11:34;7.80;90.10
52787;DHT22;38661;53.152;5.846;2023-02-15T11:14:05;7.90;90.50
52787;DHT22;38661;53.152;5.846;2023-02-15T11:16:40;8.00;89.40
52787;DHT22;38661;53.152;5.846;2023-02-15T11:19:24;8.10;89.50
52787;DHT22;38661;53.152;5.846;2023-02-15T11:21:58;8.20;89.40
52787;DHT22;38661;53.152;5.846;2023-02-15T11:24:28;8.30;88.70
52787;DHT22;38661;53.152;5.846;2023-02-15T11:27:00;8.40;88.80
52787;DHT22;38661;53.152;5.846;2023-02-15T11:29:38;8.40;88.20
52787;DHT22;38661;53.152;5.846;2023-02-15T11:32:32;8.50;88.40
52787;DHT22;38661;53.152;5.846;2023-02-15T11:37:35;8.80;88.10
52787;DHT22;38661;53.152;5.846;2023-02-15T11:40:03;9.00;88.10
52787;DHT22;38661;53.152;5.846;2023-02-15T11:42:37;9.10;87.30
52787;DHT22;38661;53.152;5.846;2023-02-15T11:45:26;9.40;87.10
52787;DHT22;38661;53.152;5.846;2023-02-15T11:47:53;9.70;86.20
52787;DHT22;38661;53.152;5.846;2023-02-15T11:50:26;9.90;86.80
52787;DHT22;38661;53.152;5.846;2023-02-15T11:52:54;10.00;86.50
52787;DHT22;38661;53.152;5.846;2023-02-15T11:55:23;10.10;85.10
52787;DHT22;38661;53.152;5.846;2023-02-15T11:58:02;10.20;83.80
52787;DHT22;38661;53.152;5.846;2023-02-15T12:00:34;10.30;83.80
52787;DHT22;38661;53.152;5.846;2023-02-15T12:03:07;10.30;83.20
52787;DHT22;38661;53.152;5.846;2023-02-15T12:05:36;10.30;81.50
52787;DHT22;38661;53.152;5.846;2023-02-15T12:11:19;10.50;83.30
52787;DHT22;38661;53.152;5.846;2023-02-15T12:13:57;10.50;83.40
52787;DHT22;38661;53.152;5.846;2023-02-15T12:16:23;10.60;83.00
52787;DHT22;38661;53.152;5.846;2023-02-15T12:18:48;10.50;82.20
52787;DHT22;38661;53.152;5.846;2023-02-15T12:21:27;10.50;82.50
52787;DHT22;38661;53.152;5.846;2023-02-15T12:23:57;10.60;82.90
52787;DHT22;38661;53.152;5.846;2023-02-15T12:26:28;10.80;82.40
52787;DHT22;38661;53.152;5.846;2023-02-15T12:28:56;10.80;81.30
52787;DHT22;38661;53.152;5.846;2023-02-15T12:31:45;10.80;80.60
52787;DHT22;38661;53.152;5.846;2023-02-15T12:36:48;11.00;81.10
52787;DHT22;38661;53.152;5.846;2023-02-15T12:39:22;11.10;81.40
52787;DHT22;38661;53.152;5.846;2023-02-15T12:44:22;11.10;79.60
52787;DHT22;38661;53.152;5.846;2023-02-15T12:49:42;11.10;79.00
52787;DHT22;38661;53.152;5.846;2023-02-15T12:54:44;11.00;79.70
52787;DHT22;38661;53.152;5.846;2023-02-15T12:57:26;10.90;79.50
52787;DHT22;38661;53.152;5.846;2023-02-15T13:02:48;10.90;79.90
52787;DHT22;38661;53.152;5.846;2023-02-15T13:08:17;10.50;77.20
52787;DHT22;38661;53.152;5.846;2023-02-15T13:13:24;10.50;79.20
52787;DHT22;38661;53.152;5.846;2023-02-15T13:15:53;10.50;79.10
52787;DHT22;38661;53.152;5.846;2023-02-15T13:20:56;10.50;78.60
52787;DHT22;38661;53.152;5.846;2023-02-15T13:23:27;10.40;78.80
52787;DHT22;38661;53.152;5.846;2023-02-15T13:25:55;10.30;79.10
52787;DHT22;38661;53.152;5.846;2023-02-15T13:28:32;10.30;79.70
52787;DHT22;38661;53.152;5.846;2023-02-15T13:31:01;10.30;79.60
52787;DHT22;38661;53.152;5.846;2023-02-15T13:33:36;10.30;80.40
52787;DHT22;38661;53.152;5.846;2023-02-15T13:36:10;10.40;79.80
52787;DHT22;38661;53.152;5.846;2023-02-15T13:39:20;10.30;79.60
52787;DHT22;38661;53.152;5.846;2023-02-15T13:44:52;10.20;79.70
52787;DHT22;38661;53.152;5.846;2023-02-15T13:53:53;10.10;80.10
52787;DHT22;38661;53.152;5.846;2023-02-15T14:13:19;10.10;81.60
52787;DHT22;38661;53.152;5.846;2023-02-15T14:28:54;10.10;80.80
52787;DHT22;38661;53.152;5.846;2023-02-15T14:31:28;10.10;79.90
52787;DHT22;38661;53.152;5.846;2023-02-15T14:33:57;10.10;79.80
52787;DHT22;38661;53.152;5.846;2023-02-15T14:36:24;10.20;79.10
52787;DHT22;38661;53.152;5.846;2023-02-15T14:49:30;10.40;78.80
52787;DHT22;38661;53.152;5.846;2023-02-15T14:52:08;10.30;78.00
52787;DHT22;38661;53.152;5.846;2023-02-15T14:59:38;10.30;79.20
52787;DHT22;38661;53.152;5.846;2023-02-15T15:04:34;10.10;78.10
52787;DHT22;38661;53.152;5.846;2023-02-15T15:09:38;10.00;78.50
52787;DHT22;38661;53.152;5.846;2023-02-15T15:14:49;10.00;78.70
52787;DHT22;38661;53.152;5.846;2023-02-15T15:20:06;9.90;78.60
52787;DHT22;38661;53.152;5.846;2023-02-15T15:22:40;9.80;78.70
52787;DHT22;38661;53.152;5.846;2023-02-15T15:28:02;9.60;80.00
52787;DHT22;38661;53.152;5.846;2023-02-15T15:47:33;9.40;80.70
52787;DHT22;38661;53.152;5.846;2023-02-15T15:50:00;9.30;80.50
52787;DHT22;38661;53.152;5.846;2023-02-15T15:52:27;9.20;80.80
52787;DHT22;38661;53.152;5.846;2023-02-15T15:55:03;9.10;81.30
52787;DHT22;38661;53.152;5.846;2023-02-15T15:57:38;9.00;81.40
52787;DHT22;38661;53.152;5.846;2023-02-15T16:01:21;9.00;81.60
52787;DHT22;38661;53.152;5.846;2023-02-15T16:03:25;8.90;81.60
52787;DHT22;38661;53.152;5.846;2023-02-15T16:05:51;8.70;81.90
52787;DHT22;38661;53.152;5.846;2023-02-15T16:08:37;8.60;82.30
52787;DHT22;38661;53.152;5.846;2023-02-15T16:11:23;8.50;82.40
52787;DHT22;38661;53.152;5.846;2023-02-15T16:13:50;8.40;82.70
52787;DHT22;38661;53.152;5.846;2023-02-15T16:16:22;8.30;83.00
52787;DHT22;38661;53.152;5.846;2023-02-15T16:18:48;8.20;83.20
52787;DHT22;38661;53.152;5.846;2023-02-15T16:21:20;8.10;83.30
52787;DHT22;38661;53.152;5.846;2023-02-15T16:24:16;8.10;83.50
52787;DHT22;38661;53.152;5.846;2023-02-15T16:27:10;8.10;83.30
52787;DHT22;38661;53.152;5.846;2023-02-15T16:29:41;7.90;83.80
52787;DHT22;38661;53.152;5.846;2023-02-15T16:32:27;7.90;83.80
52787;DHT22;38661;53.152;5.846;2023-02-15T16:34:59;7.80;84.20
52787;DHT22;38661;53.152;5.846;2023-02-15T16:37:33;7.60;85.10
52787;DHT22;38661;53.152;5.846;2023-02-15T16:40:00;7.50;84.90
52787;DHT22;38661;53.152;5.846;2023-02-15T16:42:25;7.50;84.90
52787;DHT22;38661;53.152;5.846;2023-02-15T16:45:00;7.40;85.60
52787;DHT22;38661;53.152;5.846;2023-02-15T16:47:33;7.40;85.70
52787;DHT22;38661;53.152;5.846;2023-02-15T16:50:02;7.30;86.10
52787;DHT22;38661;53.152;5.846;2023-02-15T16:52:29;7.20;86.50
52787;DHT22;38661;53.152;5.846;2023-02-15T16:55:01;7.20;85.80
52787;DHT22;38661;53.152;5.846;2023-02-15T16:57:33;7.10;86.30
52787;DHT22;38661;53.152;5.846;2023-02-15T17:00:18;7.10;86.30
52787;DHT22;38661;53.152;5.846;2023-02-15T17:03:03;7.10;86.20
52787;DHT22;38661;53.152;5.846;2023-02-15T17:08:42;7.00;87.50
52787;DHT22;38661;53.152;5.846;2023-02-15T17:11:17;7.00;87.70
52787;DHT22;38661;53.152;5.846;2023-02-15T17:16:29;6.80;87.80
52787;DHT22;38661;53.152;5.846;2023-02-15T17:18:55;6.80;88.40
52787;DHT22;38661;53.152;5.846;2023-02-15T17:21:31;6.80;87.80
52787;DHT22;38661;53.152;5.846;2023-02-15T17:24:00;6.80;87.30
52787;DHT22;38661;53.152;5.846;2023-02-15T17:26:34;6.70;88.00
52787;DHT22;38661;53.152;5.846;2023-02-15T17:29:14;6.70;87.80
52787;DHT22;38661;53.152;5.846;2023-02-15T17:31:47;6.70;88.00
52787;DHT22;38661;53.152;5.846;2023-02-15T17:34:40;6.60;88.30
52787;DHT22;38661;53.152;5.846;2023-02-15T17:37:12;6.60;88.30
52787;DHT22;38661;53.152;5.846;2023-02-15T17:39:37;6.60;88.20
52787;DHT22;38661;53.152;5.846;2023-02-15T17:42:03;6.50;88.40
52787;DHT22;38661;53.152;5.846;2023-02-15T17:44:29;6.50;88.60
52787;DHT22;38661;53.152;5.846;2023-02-15T17:46:55;6.50;88.20
52787;DHT22;38661;53.152;5.846;2023-02-15T17:49:24;6.40;88.30
52787;DHT22;38661;53.152;5.846;2023-02-15T17:51:52;6.40;88.60
52787;DHT22;38661;53.152;5.846;2023-02-15T17:54:17;6.30;88.20
52787;DHT22;38661;53.152;5.846;2023-02-15T17:57:02;6.30;88.70
52787;DHT22;38661;53.152;5.846;2023-02-15T17:59:31;6.20;89.10
52787;DHT22;38661;53.152;5.846;2023-02-15T18:01:56;6.10;89.20
52787;DHT22;38661;53.152;5.846;2023-02-15T18:04:41;6.10;89.30
52787;DHT22;38661;53.152;5.846;2023-02-15T18:07:25;6.10;89.20
52787;DHT22;38661;53.152;5.846;2023-02-15T18:10:14;6.10;89.70
52787;DHT22;38661;53.152;5.846;2023-02-15T18:12:58;6.10;89.20
52787;DHT22;38661;53.152;5.846;2023-02-15T18:15:24;6.10;88.90
52787;DHT22;38661;53.152;5.846;2023-02-15T18:17:50;6.10;88.80
52787;DHT22;38661;53.152;5.846;2023-02-15T18:20:23;6.10;89.40
52787;DHT22;38661;53.152;5.846;2023-02-15T18:22:50;6.10;89.30
52787;DHT22;38661;53.152;5.846;2023-02-15T18:25:18;6.10;89.30
52787;DHT22;38661;53.152;5.846;2023-02-15T18:27:44;6.10;89.10
52787;DHT22;38661;53.152;5.846;2023-02-15T18:30:15;6.10;89.10
52787;DHT22;38661;53.152;5.846;2023-02-15T18:32:42;6.10;89.20
52787;DHT22;38661;53.152;5.846;2023-02-15T18:35:14;6.10;89.50
52787;DHT22;38661;53.152;5.846;2023-02-15T18:37:40;6.10;89.10
52787;DHT22;38661;53.152;5.846;2023-02-15T18:40:16;6.10;89.40
52787;DHT22;38661;53.152;5.846;2023-02-15T18:42:42;6.10;89.30
52787;DHT22;38661;53.152;5.846;2023-02-15T18:47:46;6.10;89.40
52787;DHT22;38661;53.152;5.846;2023-02-15T18:50:14;6.10;89.60
52787;DHT22;38661;53.152;5.846;2023-02-15T18:52:42;6.10;89.60
52787;DHT22;38661;53.152;5.846;2023-02-15T18:55:26;6.10;89.60
52787;DHT22;38661;53.152;5.846;2023-02-15T18:57:57;6.10;89.50
52787;DHT22;38661;53.152;5.846;2023-02-15T19:00:25;6.10;89.50
52787;DHT22;38661;53.152;5.846;2023-02-15T19:02:53;6.10;89.40
52787;DHT22;38661;53.152;5.846;2023-02-15T19:05:19;6.00;89.30
52787;DHT22;38661;53.152;5.846;2023-02-15T19:07:47;6.10;89.30
52787;DHT22;38661;53.152;5.846;2023-02-15T19:10:22;6.10;89.60
52787;DHT22;38661;53.152;5.846;2023-02-15T19:12:49;6.00;89.50
52787;DHT22;38661;53.152;5.846;2023-02-15T19:15:17;6.10;89.30
52787;DHT22;38661;53.152;5.846;2023-02-15T19:17:44;6.10;89.70
52787;DHT22;38661;53.152;5.846;2023-02-15T19:20:19;6.10;89.70
52787;DHT22;38661;53.152;5.846;2023-02-15T19:22:50;6.20;89.50